Observation data for Muleshoe on 11/17/2019      Previous  Date  Next       Current Mesonet Observations  Soil Data  Daily Summary Page  Observations in Plain Language
KMUS 170600Z 32004KT 03/M01 A2999 RMK A01 T00281009  RH  077%=      5-min Rain = 0
KMUS 170605Z 32005KT 03/M01 A2999 RMK A01 T00261011  RH  078%=      5-min Rain = 0
KMUS 170610Z 31005KT 02/M01 A2999 RMK A01 T00241011  RH  079%=      5-min Rain = 0
KMUS 170615Z 32006KT 02/M01 A2999 RMK A01 T00241010  RH  079%=      5-min Rain = 0
KMUS 170620Z 31006KT 03/M01 A2999 RMK A01 T00271006  RH  080%=      5-min Rain = 0
KMUS 170625Z 31006KT 03/M00 A2999 RMK A01 T00311004  RH  079%=      5-min Rain = 0
KMUS 170630Z 29005KT 03/M01 A2999 RMK A01 T00311005  RH  078%=      5-min Rain = 0
KMUS 170635Z 28004KT 03/M01 A2999 RMK A01 T00301005  RH  079%=      5-min Rain = 0
KMUS 170640Z 28004KT 03/M01 A2999 RMK A01 T00281006  RH  079%=      5-min Rain = 0
KMUS 170645Z 30004KT 03/M01 A2999 RMK A01 T00291005  RH  080%=      5-min Rain = 0
KMUS 170650Z 31004KT 03/M01 A2999 RMK A01 T00291005  RH  079%=      5-min Rain = 0
KMUS 170655Z 30001KT 03/M01 A2999 RMK A01 T00281006  RH  079%=      5-min Rain = 0
KMUS 170700Z 27002KT 03/M00 A2999 RMK A01 T00311004  RH  079%=      5-min Rain = 0
KMUS 170705Z 27004KT 03/M01 A2999 RMK A01 T00291010  RH  077%=      5-min Rain = 0
KMUS 170710Z 27005KT 03/M01 A2999 RMK A01 T00271008  RH  079%=      5-min Rain = 0
KMUS 170715Z 29005KT 03/M01 A2999 RMK A01 T00261009  RH  078%=      5-min Rain = 0
KMUS 170720Z 32005KT 03/M01 A30 RMK A01 T00271006  RH  080%=      5-min Rain = 0
KMUS 170725Z 33006KT 04/M00 A30 RMK A01 T00361003  RH  076%=      5-min Rain = 0
KMUS 170730Z 35007KT 05/00 A3001 RMK A01 T004800-0  RH  072%=      5-min Rain = 0
KMUS 170735Z 36007G12KT 06/00 A3001 RMK A01 T005500-0  RH  068%=      5-min Rain = 0
KMUS 170740Z 01010KT 07/00 A3001 RMK A01 T00650004  RH  066%=      5-min Rain = 0
KMUS 170745Z 01011G16KT 08/01 A3001 RMK A01 T00780005  RH  061%=      5-min Rain = 0
KMUS 170750Z 01013KT 08/00 A3001 RMK A01 T00840004  RH  058%=      5-min Rain = 0
KMUS 170755Z 01013KT 09/00 A3001 RMK A01 T00880002  RH  055%=      5-min Rain = 0
KMUS 170800Z 01014G19KT 09/00 A3001 RMK A01 T009200-0  RH  053%=      5-min Rain = 0
KMUS 170805Z 02013G20KT 10/M00 A3001 RMK A01 T00961003  RH  051%=      5-min Rain = 0
KMUS 170810Z 02015G22KT 10/M01 A3001 RMK A01 T01001007  RH  048%=      5-min Rain = 0
KMUS 170815Z 01016G21KT 10/M01 A3002 RMK A01 T01021009  RH  046%=      5-min Rain = 0
KMUS 170820Z 01017G23KT 10/M01 A3002 RMK A01 T01041012  RH  045%=      5-min Rain = 0
KMUS 170825Z 01019G26KT 11/M01 A3003 RMK A01 T01061014  RH  044%=      5-min Rain = 0
KMUS 170830Z 01019G27KT 11/M02 A3003 RMK A01 T01071016  RH  043%=      5-min Rain = 0
KMUS 170835Z 01020G28KT 11/M02 A3003 RMK A01 T01071018  RH  042%=      5-min Rain = 0
KMUS 170840Z 01018G27KT 11/M02 A3003 RMK A01 T01061019  RH  042%=      5-min Rain = 0
KMUS 170845Z 01019G28KT 11/M02 A3003 RMK A01 T01051019  RH  042%=      5-min Rain = 0
KMUS 170850Z 01020G30KT 10/M02 A3004 RMK A01 T01041019  RH  043%=      5-min Rain = 0
KMUS 170855Z 01019G27KT 10/M02 A3004 RMK A01 T01031019  RH  043%=      5-min Rain = 0
KMUS 170900Z 01021G30KT 10/M02 A3004 RMK A01 T01011019  RH  043%=      5-min Rain = 0
KMUS 170905Z 01021G28KT 10/M02 A3005 RMK A01 T00991018  RH  044%=      5-min Rain = 0
KMUS 170910Z 01020G29KT 10/M02 A3005 RMK A01 T00981017  RH  045%=      5-min Rain = 0
KMUS 170915Z 01020G28KT 10/M02 A3006 RMK A01 T00951016  RH  046%=      5-min Rain = 0
KMUS 170920Z 01021G29KT 09/M02 A3006 RMK A01 T00921016  RH  047%=      5-min Rain = 0
KMUS 170925Z 01019G26KT 09/M02 A3006 RMK A01 T00901015  RH  048%=      5-min Rain = 0
KMUS 170930Z 01018G26KT 09/M01 A3006 RMK A01 T00891014  RH  049%=      5-min Rain = 0
KMUS 170935Z 01015G23KT 09/M01 A3007 RMK A01 T00871013  RH  050%=      5-min Rain = 0
KMUS 170940Z 01016G25KT 09/M01 A3007 RMK A01 T00861012  RH  051%=      5-min Rain = 0
KMUS 170945Z 01017G23KT 09/M01 A3007 RMK A01 T00851010  RH  052%=      5-min Rain = 0
KMUS 170950Z 01017G24KT 08/M01 A3008 RMK A01 T00831010  RH  052%=      5-min Rain = 0
KMUS 170955Z 01016G22KT 08/M01 A3008 RMK A01 T00811009  RH  054%=      5-min Rain = 0
KMUS 171000Z 01018G24KT 08/M01 A3008 RMK A01 T00801008  RH  054%=      5-min Rain = 0
KMUS 171005Z 01016G21KT 08/M01 A3009 RMK A01 T00781007  RH  055%=      5-min Rain = 0
KMUS 171010Z 01016G24KT 08/M01 A3009 RMK A01 T00771007  RH  056%=      5-min Rain = 0
KMUS 171015Z 01014G21KT 08/M01 A3009 RMK A01 T00751006  RH  057%=      5-min Rain = 0
KMUS 171020Z 01016G23KT 07/M01 A3009 RMK A01 T00741006  RH  058%=      5-min Rain = 0
KMUS 171025Z 01016KT 07/M01 A3009 RMK A01 T00731005  RH  058%=      5-min Rain = 0
KMUS 171030Z 01015G22KT 07/M01 A3009 RMK A01 T00721005  RH  059%=      5-min Rain = 0
KMUS 171035Z 01016G22KT 07/M01 A301 RMK A01 T00711005  RH  059%=      5-min Rain = 0
KMUS 171040Z 01014G20KT 07/M01 A301 RMK A01 T00701005  RH  060%=      5-min Rain = 0
KMUS 171045Z 01016G21KT 07/M00 A301 RMK A01 T00691004  RH  060%=      5-min Rain = 0
KMUS 171050Z 01014G21KT 07/M00 A301 RMK A01 T00671004  RH  061%=      5-min Rain = 0
KMUS 171055Z 01014G20KT 07/M00 A3011 RMK A01 T00661004  RH  062%=      5-min Rain = 0
KMUS 171100Z 01014G20KT 07/M00 A3011 RMK A01 T00651004  RH  062%=      5-min Rain = 0
KMUS 171105Z 01014G19KT 06/M00 A3011 RMK A01 T00641003  RH  063%=      5-min Rain = 0
KMUS 171110Z 01015G20KT 06/M00 A3011 RMK A01 T00641003  RH  063%=      5-min Rain = 0
KMUS 171115Z 01014G20KT 06/M00 A3012 RMK A01 T00631003  RH  064%=      5-min Rain = 0
KMUS 171120Z 01013G20KT 06/M00 A3012 RMK A01 T00621002  RH  064%=      5-min Rain = 0
KMUS 171125Z 01013KT 06/M00 A3012 RMK A01 T00611002  RH  065%=      5-min Rain = 0
KMUS 171130Z 01012G17KT 06/M00 A3013 RMK A01 T00601002  RH  065%=      5-min Rain = 0
KMUS 171135Z 01012KT 06/M00 A3013 RMK A01 T00601001  RH  066%=      5-min Rain = 0
KMUS 171140Z 01012G18KT 06/M00 A3013 RMK A01 T00591001  RH  066%=      5-min Rain = 0
KMUS 171145Z 01011KT 06/M00 A3014 RMK A01 T00581001  RH  067%=      5-min Rain = 0
KMUS 171150Z 01011KT 06/M00 A3014 RMK A01 T00571001  RH  067%=      5-min Rain = 0
KMUS 171155Z 01013G18KT 06/M00 A3014 RMK A01 T00561001  RH  068%=      5-min Rain = 0
KMUS 171200Z 00011G16KT 06/M00 A3014 RMK A01 T00551001  RH  068%=      5-min Rain = 0
KMUS 171205Z 01011G16KT 05/M00 A3015 RMK A01 T00541001  RH  069%=      5-min Rain = 0
KMUS 171210Z 00011G16KT 05/M00 A3015 RMK A01 T00521001  RH  069%=      5-min Rain = 0
KMUS 171215Z 00011G17KT 05/M00 A3015 RMK A01 T00511001  RH  070%=      5-min Rain = 0
KMUS 171220Z 00013G18KT 05/M00 A3016 RMK A01 T00511001  RH  070%=      5-min Rain = 0
KMUS 171225Z 00014KT 05/M00 A3016 RMK A01 T00501001  RH  070%=      5-min Rain = 0
KMUS 171230Z 00013G19KT 05/M00 A3016 RMK A01 T00501001  RH  071%=      5-min Rain = 0
KMUS 171235Z 00014G19KT 05/M00 A3016 RMK A01 T00491001  RH  071%=      5-min Rain = 0
KMUS 171240Z 00013KT 05/M00 A3017 RMK A01 T00491001  RH  071%=      5-min Rain = 0
KMUS 171245Z 00011G16KT 05/00 A3018 RMK A01 T004900-0  RH  071%=      5-min Rain = 0
KMUS 171250Z 01011KT 05/00 A3018 RMK A01 T004800-0  RH  072%=      5-min Rain = 0
KMUS 171255Z 01011G17KT 05/00 A3018 RMK A01 T004700-0  RH  072%=      5-min Rain = 0
KMUS 171300Z 01012G19KT 05/00 A3018 RMK A01 T00470001  RH  073%=      5-min Rain = 0
KMUS 171305Z 01011G19KT 05/00 A3018 RMK A01 T00470001  RH  073%=      5-min Rain = 0
KMUS 171310Z 01011G16KT 05/00 A3019 RMK A01 T00460002  RH  074%=      5-min Rain = 0
KMUS 171315Z 01011KT 05/00 A3019 RMK A01 T00460002  RH  074%=      5-min Rain = 0
KMUS 171320Z 01012KT 05/00 A3019 RMK A01 T00450002  RH  075%=      5-min Rain = 0
KMUS 171325Z 01012G18KT 05/00 A3019 RMK A01 T00460004  RH  075%=      5-min Rain = 0
KMUS 171330Z 01012KT 05/00 A302 RMK A01 T00460004  RH  075%=      5-min Rain = 0
KMUS 171335Z 01011KT 05/01 A302 RMK A01 T00450005  RH  076%=      5-min Rain = 0
KMUS 171340Z 01011KT 05/01 A302 RMK A01 T00450005  RH  076%=      5-min Rain = 0
KMUS 171345Z 01010KT 05/01 A302 RMK A01 T00450006  RH  076%=      5-min Rain = 0
KMUS 171350Z 01009KT 05/01 A302 RMK A01 T00450006  RH  077%=      5-min Rain = 0
KMUS 171355Z 01010KT 05/01 A302 RMK A01 T00460007  RH  077%=      5-min Rain = 0
KMUS 171400Z 01010KT 05/01 A3021 RMK A01 T00470007  RH  077%=      5-min Rain = 0
KMUS 171405Z 01010KT 05/01 A3021 RMK A01 T00480008  RH  076%=      5-min Rain = 0
KMUS 171410Z 01010KT 05/01 A3021 RMK A01 T00490009  RH  076%=      5-min Rain = 0
KMUS 171415Z 01010G15KT 05/01 A3021 RMK A01 T00510010  RH  076%=      5-min Rain = 0
KMUS 171420Z 01009G14KT 05/01 A3022 RMK A01 T00520011  RH  076%=      5-min Rain = 0
KMUS 171425Z 01009KT 05/01 A3022 RMK A01 T00540012  RH  076%=      5-min Rain = 0
KMUS 171430Z 01010KT 06/01 A3022 RMK A01 T00550013  RH  075%=      5-min Rain = 0
KMUS 171435Z 02009KT 06/01 A3022 RMK A01 T00570014  RH  075%=      5-min Rain = 0
KMUS 171440Z 02008G14KT 06/02 A3022 RMK A01 T00590015  RH  074%=      5-min Rain = 0
KMUS 171445Z 02011KT 06/02 A3023 RMK A01 T00610015  RH  074%=      5-min Rain = 0
KMUS 171450Z 02011KT 06/02 A3023 RMK A01 T00620016  RH  073%=      5-min Rain = 0
KMUS 171455Z 02011G16KT 06/02 A3023 RMK A01 T00640017  RH  073%=      5-min Rain = 0
KMUS 171500Z 01012G17KT 07/02 A3023 RMK A01 T00660017  RH  072%=      5-min Rain = 0
KMUS 171505Z 02013KT 07/02 A3023 RMK A01 T00660017  RH  072%=      5-min Rain = 0
KMUS 171510Z 02013G20KT 07/02 A3023 RMK A01 T00670018  RH  072%=      5-min Rain = 0
KMUS 171515Z 02013G19KT 07/02 A3023 RMK A01 T00700019  RH  071%=      5-min Rain = 0
KMUS 171520Z 02011G18KT 07/02 A3023 RMK A01 T00710019  RH  071%=      5-min Rain = 0
KMUS 171525Z 03014KT 07/02 A3023 RMK A01 T00730020  RH  070%=      5-min Rain = 0
KMUS 171530Z 02012G18KT 07/02 A3023 RMK A01 T00740021  RH  070%=      5-min Rain = 0
KMUS 171535Z 03013KT 08/02 A3023 RMK A01 T00760021  RH  069%=      5-min Rain = 0
KMUS 171540Z 03012G17KT 08/02 A3023 RMK A01 T00770021  RH  069%=      5-min Rain = 0
KMUS 171545Z 03011G16KT 08/02 A3023 RMK A01 T00790022  RH  068%=      5-min Rain = 0
KMUS 171550Z 03011G16KT 08/02 A3023 RMK A01 T00820022  RH  067%=      5-min Rain = 0
KMUS 171555Z 03011G16KT 08/02 A3023 RMK A01 T00830022  RH  067%=      5-min Rain = 0
KMUS 171600Z 02014G19KT 08/02 A3023 RMK A01 T00840022  RH  066%=      5-min Rain = 0
KMUS 171605Z 02011G16KT 09/02 A3023 RMK A01 T00850023  RH  066%=      5-min Rain = 0
KMUS 171610Z 02011G16KT 09/02 A3023 RMK A01 T00860023  RH  065%=      5-min Rain = 0
KMUS 171615Z 03010KT 09/02 A3023 RMK A01 T00890023  RH  065%=      5-min Rain = 0
KMUS 171620Z 02012KT 09/02 A3023 RMK A01 T00920024  RH  063%=      5-min Rain = 0
KMUS 171625Z 02013KT 09/02 A3023 RMK A01 T00900023  RH  064%=      5-min Rain = 0
KMUS 171630Z 03012KT 09/02 A3023 RMK A01 T00910024  RH  064%=      5-min Rain = 0
KMUS 171635Z 02012KT 09/02 A3023 RMK A01 T00930024  RH  063%=      5-min Rain = 0
KMUS 171640Z 02010KT 10/02 A3023 RMK A01 T00950024  RH  062%=      5-min Rain = 0
KMUS 171645Z 02010KT 10/03 A3022 RMK A01 T00960025  RH  062%=      5-min Rain = 0
KMUS 171650Z 04010KT 10/03 A3022 RMK A01 T00980025  RH  061%=      5-min Rain = 0
KMUS 171655Z 03010KT 10/03 A3022 RMK A01 T01000025  RH  061%=      5-min Rain = 0
KMUS 171700Z 04008KT 10/03 A3023 RMK A01 T01020025  RH  060%=      5-min Rain = 0
KMUS 171705Z 02009KT 10/03 A3023 RMK A01 T01000025  RH  061%=      5-min Rain = 0
KMUS 171710Z 02010KT 10/03 A3023 RMK A01 T01020025  RH  060%=      5-min Rain = 0
KMUS 171715Z 02010KT 10/03 A3022 RMK A01 T01020025  RH  060%=      5-min Rain = 0
KMUS 171720Z 03008KT 10/03 A3022 RMK A01 T01040026  RH  059%=      5-min Rain = 0
KMUS 171725Z 02007G12KT 10/03 A3022 RMK A01 T01040025  RH  059%=      5-min Rain = 0
KMUS 171730Z 04008KT 11/03 A3022 RMK A01 T01070026  RH  058%=      5-min Rain = 0
KMUS 171735Z 04006KT 11/03 A3021 RMK A01 T01070027  RH  059%=      5-min Rain = 0
KMUS 171740Z 05007KT 11/03 A3021 RMK A01 T01100026  RH  057%=      5-min Rain = 0
KMUS 171745Z 04008KT 11/03 A3021 RMK A01 T01100026  RH  057%=      5-min Rain = 0
KMUS 171750Z 04006KT 11/03 A3021 RMK A01 T01110027  RH  057%=      5-min Rain = 0
KMUS 171755Z 01007G12KT 12/03 A302 RMK A01 T01150027  RH  055%=      5-min Rain = 0
KMUS 171800Z 03006G11KT 12/03 A302 RMK A01 T01150026  RH  055%=      5-min Rain = 0
KMUS 171805Z 04008G13KT 12/03 A302 RMK A01 T01160025  RH  055%=      5-min Rain = 0
KMUS 171810Z 04007KT 12/03 A3019 RMK A01 T01160026  RH  055%=      5-min Rain = 0
KMUS 171815Z 01005G13KT 12/03 A3019 RMK A01 T01160025  RH  055%=      5-min Rain = 0
KMUS 171820Z 03006KT 12/03 A3019 RMK A01 T01180025  RH  054%=      5-min Rain = 0
KMUS 171825Z 01007KT 12/03 A3019 RMK A01 T01220025  RH  053%=      5-min Rain = 0
KMUS 171830Z 01009KT 12/02 A3019 RMK A01 T01220024  RH  052%=      5-min Rain = 0
KMUS 171835Z 01007KT 12/03 A3019 RMK A01 T01230025  RH  052%=      5-min Rain = 0
KMUS 171840Z 03007KT 12/03 A3019 RMK A01 T01240025  RH  052%=      5-min Rain = 0
KMUS 171845Z 01008KT 13/03 A3019 RMK A01 T01250025  RH  051%=      5-min Rain = 0
KMUS 171850Z 03006KT 12/03 A3018 RMK A01 T01210025  RH  052%=      5-min Rain = 0
KMUS 171855Z 02005KT 13/03 A3018 RMK A01 T01250026  RH  052%=      5-min Rain = 0
KMUS 171900Z 03007G12KT 13/03 A3018 RMK A01 T01290025  RH  050%=      5-min Rain = 0
KMUS 171905Z 02009KT 13/03 A3018 RMK A01 T01320025  RH  049%=      5-min Rain = 0
KMUS 171910Z 35006G11KT 13/02 A3018 RMK A01 T01320024  RH  049%=      5-min Rain = 0
KMUS 171915Z 00006KT 13/03 A3018 RMK A01 T01320025  RH  049%=      5-min Rain = 0
KMUS 171920Z 01010G16KT 14/02 A3017 RMK A01 T01350023  RH  047%=      5-min Rain = 0
KMUS 171925Z 03009G15KT 13/02 A3017 RMK A01 T01340022  RH  048%=      5-min Rain = 0
KMUS 171930Z 03009G14KT 14/02 A3017 RMK A01 T01350023  RH  047%=      5-min Rain = 0
KMUS 171935Z 01009KT 14/02 A3017 RMK A01 T01350023  RH  048%=      5-min Rain = 0
KMUS 171940Z 03009G14KT 14/02 A3016 RMK A01 T01360022  RH  047%=      5-min Rain = 0
KMUS 171945Z 03004KT 13/02 A3016 RMK A01 T01330023  RH  048%=      5-min Rain = 0
KMUS 171950Z 02006G12KT 14/02 A3015 RMK A01 T01350023  RH  047%=      5-min Rain = 0
KMUS 171955Z 03007KT 14/02 A3015 RMK A01 T01360022  RH  047%=      5-min Rain = 0
KMUS 172000Z 05007KT 14/02 A3015 RMK A01 T01370023  RH  047%=      5-min Rain = 0
KMUS 172005Z 08005KT 14/02 A3014 RMK A01 T01360023  RH  047%=      5-min Rain = 0
KMUS 172010Z 01005KT 14/02 A3014 RMK A01 T01380023  RH  047%=      5-min Rain = 0
KMUS 172015Z 02005KT 14/02 A3014 RMK A01 T01370022  RH  046%=      5-min Rain = 0
KMUS 172020Z 02006G13KT 14/02 A3013 RMK A01 T01400022  RH  046%=      5-min Rain = 0
KMUS 172025Z 07002KT 14/02 A3013 RMK A01 T01410023  RH  046%=      5-min Rain = 0
KMUS 172030Z 02003KT 14/02 A3013 RMK A01 T01390023  RH  046%=      5-min Rain = 0
KMUS 172035Z 04006KT 14/02 A3013 RMK A01 T01420022  RH  045%=      5-min Rain = 0
KMUS 172040Z 05004KT 14/02 A3013 RMK A01 T01420021  RH  044%=      5-min Rain = 0
KMUS 172045Z 04004KT 14/02 A3012 RMK A01 T01420020  RH  044%=      5-min Rain = 0
KMUS 172050Z 04004KT 14/02 A3012 RMK A01 T01420019  RH  044%=      5-min Rain = 0
KMUS 172055Z 07005KT 14/02 A3012 RMK A01 T01430020  RH  044%=      5-min Rain = 0
KMUS 172100Z 05004KT 14/02 A3012 RMK A01 T01430021  RH  044%=      5-min Rain = 0
KMUS 172105Z 04003KT 14/02 A3012 RMK A01 T01440020  RH  044%=      5-min Rain = 0
KMUS 172110Z 33001KT 15/02 A3012 RMK A01 T01450021  RH  044%=      5-min Rain = 0
KMUS 172115Z 15001KT 14/02 A3011 RMK A01 T01440021  RH  044%=      5-min Rain = 0
KMUS 172120Z 12003KT 14/02 A3011 RMK A01 T01440020  RH  044%=      5-min Rain = 0
KMUS 172125Z 13003KT 14/02 A3011 RMK A01 T01440021  RH  044%=      5-min Rain = 0
KMUS 172130Z 12003KT 14/02 A3011 RMK A01 T01440020  RH  044%=      5-min Rain = 0
KMUS 172135Z 17001KT 15/02 A3011 RMK A01 T01450020  RH  043%=      5-min Rain = 0
KMUS 172140Z 21002KT 15/02 A3011 RMK A01 T01510021  RH  042%=      5-min Rain = 0
KMUS 172145Z 23002KT 15/02 A3011 RMK A01 T01520019  RH  041%=      5-min Rain = 0
KMUS 172150Z 08001KT 15/02 A301 RMK A01 T01540020  RH  041%=      5-min Rain = 0
KMUS 172155Z 29002KT 16/02 A301 RMK A01 T01560018  RH  040%=      5-min Rain = 0
KMUS 172200Z 26003KT 15/02 A3011 RMK A01 T01520016  RH  041%=      5-min Rain = 0
KMUS 172205Z 23003KT 15/02 A3011 RMK A01 T01510016  RH  041%=      5-min Rain = 0
KMUS 172210Z 32003KT 15/02 A3011 RMK A01 T01510015  RH  040%=      5-min Rain = 0
KMUS 172215Z 31003KT 15/01 A3011 RMK A01 T01510013  RH  040%=      5-min Rain = 0
KMUS 172220Z 31002KT 15/01 A3011 RMK A01 T01510013  RH  039%=      5-min Rain = 0
KMUS 172225Z 28003KT 15/01 A3011 RMK A01 T01510012  RH  039%=      5-min Rain = 0
KMUS 172230Z 27005KT 15/01 A3011 RMK A01 T01490012  RH  040%=      5-min Rain = 0
KMUS 172235Z 26005KT 15/01 A3011 RMK A01 T01490013  RH  040%=      5-min Rain = 0
KMUS 172240Z 27004KT 15/01 A3011 RMK A01 T01490013  RH  040%=      5-min Rain = 0
KMUS 172245Z 28004KT 15/01 A3011 RMK A01 T01480013  RH  040%=      5-min Rain = 0
KMUS 172250Z 30003KT 15/01 A3011 RMK A01 T01480013  RH  040%=      5-min Rain = 0
KMUS 172255Z 29004KT 15/01 A3011 RMK A01 T01470013  RH  041%=      5-min Rain = 0
KMUS 172300Z 30004KT 15/01 A3011 RMK A01 T01450014  RH  041%=      5-min Rain = 0
KMUS 172305Z 30003KT 14/01 A3011 RMK A01 T01440014  RH  042%=      5-min Rain = 0
KMUS 172310Z 32003KT 14/02 A3011 RMK A01 T01430015  RH  042%=      5-min Rain = 0
KMUS 172315Z 31003KT 14/02 A3012 RMK A01 T01410015  RH  043%=      5-min Rain = 0
KMUS 172320Z 32003KT 14/02 A3011 RMK A01 T01390015  RH  043%=      5-min Rain = 0
KMUS 172325Z 32002KT 14/02 A3011 RMK A01 T01380015  RH  044%=      5-min Rain = 0
KMUS 172330Z 31001KT 14/02 A3011 RMK A01 T01370015  RH  044%=      5-min Rain = 0
KMUS 172335Z 28001KT 13/01 A3011 RMK A01 T01340014  RH  045%=      5-min Rain = 0
KMUS 172340Z 27001KT 13/01 A3011 RMK A01 T01300013  RH  046%=      5-min Rain = 0
KMUS 172345Z 27000KT 13/01 A3011 RMK A01 T01250012  RH  047%=      5-min Rain = 0
KMUS 172350Z 00000KT 11/01 A3011 RMK A01 T01140006  RH  048%=      5-min Rain = 0
KMUS 172355Z 00000KT 10/01 A3011 RMK A01 T01040008  RH  052%=      5-min Rain = 0
KMUS 180000Z 13000KT 10/01 A3011 RMK A01 T01000006  RH  053%=      5-min Rain = 0
KMUS 180005Z 14001KT 10/01 A301 RMK A01 T00960005  RH  054%=      5-min Rain = 0
KMUS 180010Z 13002KT 09/M00 A3011 RMK A01 T00901003  RH  053%=      5-min Rain = 0
KMUS 180015Z 13003KT 08/M00 A3011 RMK A01 T00811002  RH  056%=      5-min Rain = 0
KMUS 180020Z 13003KT 07/M00 A3011 RMK A01 T00731001  RH  060%=      5-min Rain = 0
KMUS 180025Z 12003KT 07/00 A3011 RMK A01 T00690003  RH  063%=      5-min Rain = 0
KMUS 180030Z 13003KT 07/M00 A3011 RMK A01 T00661002  RH  062%=      5-min Rain = 0
KMUS 180035Z 15005KT 06/00 A301 RMK A01 T00620002  RH  067%=      5-min Rain = 0
KMUS 180040Z 15004KT 06/00 A301 RMK A01 T00610004  RH  068%=      5-min Rain = 0
KMUS 180045Z 15004KT 06/01 A301 RMK A01 T00600008  RH  070%=      5-min Rain = 0
KMUS 180050Z 14003KT 06/01 A301 RMK A01 T00600010  RH  071%=      5-min Rain = 0
KMUS 180055Z 14003KT 06/01 A301 RMK A01 T00600014  RH  073%=      5-min Rain = 0
KMUS 180100Z 14004KT 06/01 A301 RMK A01 T00600011  RH  072%=      5-min Rain = 0
KMUS 180105Z 15003KT 06/00 A301 RMK A01 T00550003  RH  070%=      5-min Rain = 0
KMUS 180110Z 15004KT 05/01 A301 RMK A01 T00530008  RH  074%=      5-min Rain = 0
KMUS 180115Z 14004KT 05/01 A301 RMK A01 T00520008  RH  074%=      5-min Rain = 0
KMUS 180120Z 15004KT 05/01 A301 RMK A01 T00510006  RH  074%=      5-min Rain = 0
KMUS 180125Z 14004KT 05/01 A3011 RMK A01 T00510005  RH  073%=      5-min Rain = 0
KMUS 180130Z 12004KT 05/01 A3011 RMK A01 T00500006  RH  074%=      5-min Rain = 0
KMUS 180135Z 12004KT 05/01 A3011 RMK A01 T00500008  RH  075%=      5-min Rain = 0
KMUS 180140Z 13004KT 05/01 A301 RMK A01 T00480007  RH  076%=      5-min Rain = 0
KMUS 180145Z 14003KT 04/00 A3011 RMK A01 T00430003  RH  076%=      5-min Rain = 0
KMUS 180150Z 14002KT 04/M00 A3011 RMK A01 T00391004  RH  074%=      5-min Rain = 0
KMUS 180155Z 12003KT 04/M01 A3011 RMK A01 T00361005  RH  075%=      5-min Rain = 0
KMUS 180200Z 14003KT 04/M01 A3011 RMK A01 T00371005  RH  075%=      5-min Rain = 0
KMUS 180205Z 16003KT 03/M01 A3011 RMK A01 T00341008  RH  075%=      5-min Rain = 0
KMUS 180210Z 16005KT 03/M01 A3011 RMK A01 T00321009  RH  076%=      5-min Rain = 0
KMUS 180215Z 16005KT 03/M00 A3011 RMK A01 T00341001  RH  079%=      5-min Rain = 0
KMUS 180220Z 16005KT 04/00 A3011 RMK A01 T00360001  RH  079%=      5-min Rain = 0
KMUS 180225Z 17004KT 04/00 A3011 RMK A01 T00350000  RH  079%=      5-min Rain = 0
KMUS 180230Z 18005KT 04/00 A3011 RMK A01 T00350001  RH  079%=      5-min Rain = 0
KMUS 180235Z 17005KT 03/M00 A3012 RMK A01 T00341002  RH  078%=      5-min Rain = 0
KMUS 180240Z 17005KT 03/M00 A3012 RMK A01 T00341001  RH  079%=      5-min Rain = 0
KMUS 180245Z 18004KT 04/M00 A3012 RMK A01 T00351001  RH  079%=      5-min Rain = 0
KMUS 180250Z 18005KT 03/M00 A3012 RMK A01 T00331001  RH  079%=      5-min Rain = 0
KMUS 180255Z 18006KT 04/00 A3012 RMK A01 T00350002  RH  080%=      5-min Rain = 0
KMUS 180300Z 18006KT 04/00 A3012 RMK A01 T00390002  RH  078%=      5-min Rain = 0
KMUS 180305Z 18007KT 04/00 A3012 RMK A01 T00400002  RH  077%=      5-min Rain = 0
KMUS 180310Z 18008KT 04/00 A3012 RMK A01 T00410004  RH  078%=      5-min Rain = 0
KMUS 180315Z 19008KT 04/01 A3012 RMK A01 T00440005  RH  077%=      5-min Rain = 0
KMUS 180320Z 19008KT 04/00 A3012 RMK A01 T00430004  RH  077%=      5-min Rain = 0
KMUS 180325Z 19007KT 05/01 A3012 RMK A01 T00480008  RH  076%=      5-min Rain = 0
KMUS 180330Z 19007KT 05/01 A3012 RMK A01 T00520007  RH  074%=      5-min Rain = 0
KMUS 180335Z 19007KT 05/01 A3011 RMK A01 T00510007  RH  074%=      5-min Rain = 0
KMUS 180340Z 19007KT 05/01 A3011 RMK A01 T00500006  RH  074%=      5-min Rain = 0
KMUS 180345Z 19006KT 05/00 A3011 RMK A01 T00470004  RH  074%=      5-min Rain = 0
KMUS 180350Z 19007KT 04/00 A3011 RMK A01 T00440003  RH  076%=      5-min Rain = 0
KMUS 180355Z 19006KT 04/00 A3011 RMK A01 T00400003  RH  077%=      5-min Rain = 0
KMUS 180400Z 19004KT 04/00 A3011 RMK A01 T00370002  RH  079%=      5-min Rain = 0
KMUS 180405Z 19005KT 04/00 A3011 RMK A01 T00350001  RH  080%=      5-min Rain = 0
KMUS 180410Z 19004KT 03/M00 A3011 RMK A01 T00321001  RH  080%=      5-min Rain = 0
KMUS 180415Z 19005KT 03/M00 A3011 RMK A01 T00281004  RH  080%=      5-min Rain = 0
KMUS 180420Z 20005KT 02/M01 A3011 RMK A01 T00231008  RH  081%=      5-min Rain = 0
KMUS 180425Z 20005KT 02/M01 A3011 RMK A01 T00201008  RH  082%=      5-min Rain = 0
KMUS 180430Z 20007KT 02/M01 A3011 RMK A01 T00191007  RH  084%=      5-min Rain = 0
KMUS 180435Z 19008KT 02/M00 A3011 RMK A01 T00221002  RH  085%=      5-min Rain = 0
KMUS 180440Z 20008KT 03/00 A301 RMK A01 T00280001  RH  084%=      5-min Rain = 0
KMUS 180445Z 20008KT 03/00 A301 RMK A01 T00310002  RH  082%=      5-min Rain = 0
KMUS 180450Z 20007KT 03/00 A301 RMK A01 T00320002  RH  082%=      5-min Rain = 0
KMUS 180455Z 20006KT 03/00 A301 RMK A01 T00310001  RH  082%=      5-min Rain = 0
KMUS 180500Z 20007KT 03/00 A301 RMK A01 T00300001  RH  082%=      5-min Rain = 0
KMUS 180505Z 20006KT 03/00 A301 RMK A01 T00310002  RH  082%=      5-min Rain = 0
KMUS 180510Z 20005KT 03/00 A301 RMK A01 T00320003  RH  082%=      5-min Rain = 0
KMUS 180515Z 20004KT 03/00 A301 RMK A01 T00340004  RH  082%=      5-min Rain = 0
KMUS 180520Z 20004KT 04/01 A301 RMK A01 T00350005  RH  082%=      5-min Rain = 0
KMUS 180525Z 22002KT 04/00 A301 RMK A01 T00350002  RH  080%=      5-min Rain = 0
KMUS 180530Z 23002KT 03/M00 A3009 RMK A01 T00291004  RH  080%=      5-min Rain = 0
KMUS 180535Z 24002KT 03/M00 A3009 RMK A01 T00251004  RH  082%=      5-min Rain = 0
KMUS 180540Z 24003KT 02/M01 A3009 RMK A01 T00241005  RH  082%=      5-min Rain = 0
KMUS 180545Z 23003KT 02/M01 A3009 RMK A01 T00191010  RH  082%=      5-min Rain = 0
KMUS 180550Z 23002KT 02/M01 A3009 RMK A01 T00201005  RH  085%=      5-min Rain = 0
KMUS 180555Z 22002KT 02/M01 A3009 RMK A01 T00181009  RH  083%=      5-min Rain = 0

Page generated in 0.009 seconds.